Time;durP1;ratioP1;P1;durP2;ratioP2;P2;SDS_P1;SDS_P2;PMS_P1;PMS_P2;Temp;Humidity;BMP_temperature;BMP_pressure;BME280_temperature;BME280_humidity;BME280_pressure;Samples;Min_cycle;Max_cycle;Signal;HPM_P1;HPM_P2
2023/07/13 00:02:21;;;;;;;23.63;22.17;;;;;;;;;;5121171;28;20516;-90
2023/07/13 00:04:48;;;;;;;22.67;21.37;;;;;;;;;;5121602;28;20448;-89
2023/07/13 00:07:19;;;;;;;23.03;21.63;;;;;;;;;;5120435;28;20483;-90
2023/07/13 00:09:47;;;;;;;23.50;22.10;;;;;;;;;;5121219;27;20517;-89
2023/07/13 00:12:24;;;;;;;23.00;21.50;;;;;;;;;;5121035;28;20845;-89
2023/07/13 00:14:51;;;;;;;23.10;21.63;;;;;;;;;;5121361;28;20782;-89
2023/07/13 00:17:18;;;;;;;22.67;21.47;;;;;;;;;;5121167;28;20448;-89
2023/07/13 00:19:47;;;;;;;23.97;22.67;;;;;;;;;;5121276;28;20521;-88
2023/07/13 00:22:14;;;;;;;22.43;21.03;;;;;;;;;;5125001;27;20438;-90
2023/07/13 00:24:42;;;;;;;22.60;21.27;;;;;;;;;;5140472;27;20427;-90
2023/07/13 00:27:10;;;;;;;23.57;22.20;;;;;;;;;;5123538;28;20566;-90
2023/07/13 00:29:37;;;;;;;23.90;22.50;;;;;;;;;;5122395;28;20456;-90
2023/07/13 00:32:04;;;;;;;21.90;20.70;;;;;;;;;;5122479;28;20448;-90
2023/07/13 00:34:31;;;;;;;23.53;21.80;;;;;;;;;;5122697;28;20512;-89
2023/07/13 00:36:59;;;;;;;23.77;22.07;;;;;;;;;;5122000;28;20440;-90
2023/07/13 00:39:27;;;;;;;22.73;21.33;;;;;;;;;;5121996;27;21012;-89
2023/07/13 00:41:54;;;;;;;23.30;22.10;;;;;;;;;;5122469;28;20447;-90
2023/07/13 00:44:23;;;;;;;23.50;22.10;;;;;;;;;;5122360;28;20434;-90
2023/07/13 00:46:50;;;;;;;22.20;20.80;;;;;;;;;;5121418;28;20431;-90
2023/07/13 00:49:19;;;;;;;23.70;22.10;;;;;;;;;;5121117;28;20523;-90
2023/07/13 00:51:49;;;;;;;22.90;21.40;;;;;;;;;;5120304;28;20908;-90
2023/07/13 00:54:19;;;;;;;23.90;22.40;;;;;;;;;;5122091;28;20430;-88
2023/07/13 00:56:47;;;;;;;23.77;22.33;;;;;;;;;;5122522;28;20971;-89
2023/07/13 00:59:16;;;;;;;23.30;21.90;;;;;;;;;;5120020;27;20489;-89
2023/07/13 01:01:43;;;;;;;22.83;21.20;;;;;;;;;;5120629;28;20452;-89
2023/07/13 01:04:11;;;;;;;22.80;21.60;;;;;;;;;;5119965;28;20427;-90
2023/07/13 01:06:39;;;;;;;23.33;21.73;;;;;;;;;;5120279;28;20851;-89
2023/07/13 01:09:07;;;;;;;23.00;21.70;;;;;;;;;;5120376;28;20432;-89
2023/07/13 01:11:35;;;;;;;22.73;21.43;;;;;;;;;;5120117;28;20406;-89
2023/07/13 01:14:03;;;;;;;22.57;21.27;;;;;;;;;;5120167;28;20422;-89
2023/07/13 01:16:31;;;;;;;22.23;20.93;;;;;;;;;;5119878;28;20525;-89
2023/07/13 01:19:00;;;;;;;22.63;21.10;;;;;;;;;;5120553;28;20445;-89
2023/07/13 01:21:31;;;;;;;23.40;22.00;;;;;;;;;;5118960;27;20447;-88
2023/07/13 01:23:58;;;;;;;23.10;21.60;;;;;;;;;;5119648;28;20453;-90
2023/07/13 01:26:25;;;;;;;23.60;22.00;;;;;;;;;;5119210;28;20479;-89
2023/07/13 01:28:52;;;;;;;22.53;21.20;;;;;;;;;;5120268;28;20511;-88
2023/07/13 01:31:19;;;;;;;22.70;20.97;;;;;;;;;;5120999;28;20450;-89
2023/07/13 01:33:46;;;;;;;21.40;20.10;;;;;;;;;;5120338;28;20439;-89
2023/07/13 01:36:13;;;;;;;22.70;21.17;;;;;;;;;;5119403;28;20422;-88
2023/07/13 01:38:41;;;;;;;23.47;21.97;;;;;;;;;;5119291;28;20417;-89
2023/07/13 01:41:09;;;;;;;22.83;21.57;;;;;;;;;;5118960;27;20533;-88
2023/07/13 01:43:36;;;;;;;22.40;21.00;;;;;;;;;;5118209;28;20887;-89
2023/07/13 01:46:03;;;;;;;23.20;21.70;;;;;;;;;;5118020;28;20456;-89
2023/07/13 01:48:30;;;;;;;22.97;21.47;;;;;;;;;;5117849;28;20478;-90
2023/07/13 01:50:57;;;;;;;22.10;20.90;;;;;;;;;;5118214;27;20488;-89
2023/07/13 01:53:24;;;;;;;23.17;21.57;;;;;;;;;;5118808;28;20428;-89
2023/07/13 01:55:53;;;;;;;21.73;20.57;;;;;;;;;;5118360;28;20488;-89
2023/07/13 01:58:20;;;;;;;22.97;21.30;;;;;;;;;;5121588;28;20430;-90
2023/07/13 02:00:49;;;;;;;24.53;22.63;;;;;;;;;;5118468;28;20507;-90
2023/07/13 02:03:17;;;;;;;22.80;21.50;;;;;;;;;;5117836;28;20407;-89
2023/07/13 02:05:45;;;;;;;23.50;22.10;;;;;;;;;;5117709;28;20436;-89
2023/07/13 02:08:12;;;;;;;24.70;22.70;;;;;;;;;;5117803;28;20475;-89
2023/07/13 02:10:39;;;;;;;23.60;22.30;;;;;;;;;;5117255;27;20480;-89
2023/07/13 02:13:08;;;;;;;23.90;22.17;;;;;;;;;;5117847;28;20504;-89
2023/07/13 02:15:35;;;;;;;22.93;21.50;;;;;;;;;;5119103;28;20891;-89
2023/07/13 02:18:03;;;;;;;23.83;22.33;;;;;;;;;;5117336;28;21318;-89
2023/07/13 02:20:30;;;;;;;24.60;22.77;;;;;;;;;;5117126;27;20488;-89
2023/07/13 02:22:57;;;;;;;23.73;22.20;;;;;;;;;;5117326;28;20406;-90
2023/07/13 02:25:25;;;;;;;24.00;22.60;;;;;;;;;;5116846;28;20503;-89
2023/07/13 02:27:52;;;;;;;25.33;23.20;;;;;;;;;;5116468;28;20450;-89
2023/07/13 02:30:20;;;;;;;24.60;22.87;;;;;;;;;;5116176;27;20980;-89
2023/07/13 02:32:47;;;;;;;24.67;22.87;;;;;;;;;;5116566;28;20430;-89
2023/07/13 02:35:14;;;;;;;24.67;23.03;;;;;;;;;;5117189;28;20495;-88
2023/07/13 02:37:41;;;;;;;25.10;23.60;;;;;;;;;;5116175;28;20477;-88
2023/07/13 02:40:09;;;;;;;24.30;22.70;;;;;;;;;;5115573;28;21016;-88
2023/07/13 02:42:36;;;;;;;24.13;22.37;;;;;;;;;;5116557;27;20493;-88
2023/07/13 02:45:03;;;;;;;24.10;22.60;;;;;;;;;;5115321;28;20997;-88
2023/07/13 02:47:33;;;;;;;24.97;23.47;;;;;;;;;;5116027;28;20913;-88
2023/07/13 02:50:00;;;;;;;24.40;22.97;;;;;;;;;;5118510;28;20452;-88
2023/07/13 02:52:27;;;;;;;25.03;23.17;;;;;;;;;;5119448;27;20468;-88
2023/07/13 02:54:54;;;;;;;24.47;22.50;;;;;;;;;;5119976;28;20480;-88
2023/07/13 02:57:21;;;;;;;24.43;23.03;;;;;;;;;;5118839;28;20472;-88
2023/07/13 02:59:49;;;;;;;24.50;22.87;;;;;;;;;;5119300;28;20499;-88
2023/07/13 03:02:16;;;;;;;23.13;21.73;;;;;;;;;;5118324;28;20438;-89
2023/07/13 03:04:45;;;;;;;24.73;23.00;;;;;;;;;;5118731;28;20460;-89
2023/07/13 03:07:13;;;;;;;24.70;23.20;;;;;;;;;;5137943;27;20433;-89
2023/07/13 03:09:41;;;;;;;24.57;22.97;;;;;;;;;;5118419;28;20454;-89
2023/07/13 03:12:08;;;;;;;24.57;23.00;;;;;;;;;;5125414;27;20447;-88
2023/07/13 03:14:35;;;;;;;23.77;22.27;;;;;;;;;;5133704;27;20488;-89
2023/07/13 03:17:02;;;;;;;23.70;22.30;;;;;;;;;;5122695;27;20456;-88
2023/07/13 03:19:29;;;;;;;24.20;22.53;;;;;;;;;;5132724;27;20429;-90
2023/07/13 03:21:58;;;;;;;25.80;24.10;;;;;;;;;;5135294;27;20559;-88
2023/07/13 03:24:25;;;;;;;23.77;22.47;;;;;;;;;;5135387;27;20401;-89
2023/07/13 03:26:52;;;;;;;22.97;21.57;;;;;;;;;;5132738;27;20433;-89
2023/07/13 03:29:19;;;;;;;24.00;22.30;;;;;;;;;;5123222;28;20462;-89
2023/07/13 03:31:46;;;;;;;25.57;24.00;;;;;;;;;;5135063;27;20567;-89
2023/07/13 03:34:14;;;;;;;25.37;23.77;;;;;;;;;;5143093;27;20446;-89
2023/07/13 03:36:41;;;;;;;26.37;24.57;;;;;;;;;;5143407;27;20480;-89
2023/07/13 03:39:10;;;;;;;25.77;24.03;;;;;;;;;;5125826;27;20455;-89
2023/07/13 03:41:37;;;;;;;25.37;23.67;;;;;;;;;;5134582;27;20978;-84
2023/07/13 03:44:05;;;;;;;26.03;24.47;;;;;;;;;;5143287;27;20406;-83
2023/07/13 03:46:33;;;;;;;26.47;24.47;;;;;;;;;;5138987;27;20406;-83
2023/07/13 03:49:00;;;;;;;26.03;24.43;;;;;;;;;;5139030;27;20437;-84
2023/07/13 03:51:29;;;;;;;25.07;23.43;;;;;;;;;;5125412;28;20419;-84
2023/07/13 03:53:56;;;;;;;25.77;24.17;;;;;;;;;;5120367;28;20433;-84
2023/07/13 03:56:25;;;;;;;24.83;23.10;;;;;;;;;;5118374;27;20517;-84
2023/07/13 03:58:52;;;;;;;25.33;23.73;;;;;;;;;;5119662;28;20432;-84
2023/07/13 04:01:20;;;;;;;24.03;22.60;;;;;;;;;;5118494;27;20484;-84
2023/07/13 04:03:47;;;;;;;23.90;22.50;;;;;;;;;;5120137;28;20439;-83
2023/07/13 04:06:20;;;;;;;25.13;23.53;;;;;;;;;;5118430;28;20497;-84
2023/07/13 04:08:48;;;;;;;24.53;23.03;;;;;;;;;;5118805;27;20484;-84
2023/07/13 04:11:15;;;;;;;24.70;23.00;;;;;;;;;;5118950;28;20442;-84
2023/07/13 04:13:44;;;;;;;23.57;22.00;;;;;;;;;;5118792;28;20464;-83
2023/07/13 04:16:11;;;;;;;23.43;22.03;;;;;;;;;;5118398;28;20451;-84
2023/07/13 04:18:38;;;;;;;24.43;22.80;;;;;;;;;;5118440;28;20499;-84
2023/07/13 04:21:05;;;;;;;22.80;21.30;;;;;;;;;;5117986;27;20513;-84
2023/07/13 04:23:32;;;;;;;23.23;21.63;;;;;;;;;;5118109;28;20481;-84
2023/07/13 04:25:59;;;;;;;23.17;21.40;;;;;;;;;;5118001;28;20485;-84
2023/07/13 04:28:27;;;;;;;23.53;21.57;;;;;;;;;;5118170;28;20479;-82
2023/07/13 04:30:56;;;;;;;22.50;20.93;;;;;;;;;;5117755;28;20463;-84
2023/07/13 04:33:23;;;;;;;24.27;22.57;;;;;;;;;;5117803;27;20482;-84
2023/07/13 04:35:56;;;;;;;23.00;21.40;;;;;;;;;;5117650;28;20449;-84
2023/07/13 04:38:24;;;;;;;24.13;22.03;;;;;;;;;;5117843;28;20907;-84
2023/07/13 04:40:51;;;;;;;23.43;21.53;;;;;;;;;;5118033;28;20996;-84
2023/07/13 04:43:18;;;;;;;22.87;21.33;;;;;;;;;;5118171;28;20407;-84
2023/07/13 04:45:45;;;;;;;23.13;21.30;;;;;;;;;;5117110;28;20481;-84
2023/07/13 04:48:13;;;;;;;23.40;21.93;;;;;;;;;;5117168;28;20475;-84
2023/07/13 04:50:41;;;;;;;23.43;21.93;;;;;;;;;;5116768;27;20489;-84
2023/07/13 04:53:08;;;;;;;23.20;21.70;;;;;;;;;;5117559;28;20456;-84
2023/07/13 04:55:35;;;;;;;22.37;20.80;;;;;;;;;;5116097;28;20948;-84
2023/07/13 04:58:02;;;;;;;23.00;21.20;;;;;;;;;;5117736;28;20481;-84
2023/07/13 05:00:30;;;;;;;23.40;22.10;;;;;;;;;;5117232;27;20446;-85
2023/07/13 05:02:58;;;;;;;21.90;20.13;;;;;;;;;;5136063;27;20429;-84
2023/07/13 05:05:27;;;;;;;22.90;21.10;;;;;;;;;;5137424;27;20421;-83
2023/07/13 05:07:54;;;;;;;22.97;20.90;;;;;;;;;;5138579;27;20527;-84
2023/07/13 05:10:22;;;;;;;23.23;21.50;;;;;;;;;;5137494;27;20635;-84
2023/07/13 05:12:49;;;;;;;22.03;20.43;;;;;;;;;;5137902;27;20967;-84
2023/07/13 05:15:20;;;;;;;21.77;20.23;;;;;;;;;;5137854;27;20451;-84
2023/07/13 05:17:47;;;;;;;20.83;19.60;;;;;;;;;;5136676;27;20449;-83
2023/07/13 05:20:14;;;;;;;21.00;19.80;;;;;;;;;;5137565;27;20483;-84
2023/07/13 05:22:42;;;;;;;21.60;19.80;;;;;;;;;;5137598;27;20956;-84
2023/07/13 05:25:10;;;;;;;21.33;19.70;;;;;;;;;;5137192;27;20437;-84
2023/07/13 05:27:37;;;;;;;21.40;19.63;;;;;;;;;;5135870;27;20415;-84
2023/07/13 05:30:05;;;;;;;20.60;19.40;;;;;;;;;;5136346;27;20540;-84
2023/07/13 05:32:32;;;;;;;21.60;20.00;;;;;;;;;;5137260;27;20470;-84
2023/07/13 05:34:59;;;;;;;20.83;19.33;;;;;;;;;;5137252;27;20443;-83
2023/07/13 05:37:26;;;;;;;20.70;19.50;;;;;;;;;;5136919;27;20443;-84
2023/07/13 05:39:54;;;;;;;21.40;19.70;;;;;;;;;;5136419;27;20442;-85
2023/07/13 05:42:21;;;;;;;20.27;18.90;;;;;;;;;;5136809;27;20515;-84
2023/07/13 05:44:48;;;;;;;22.20;20.60;;;;;;;;;;5137001;27;20459;-83
2023/07/13 05:47:15;;;;;;;21.23;19.67;;;;;;;;;;5136499;27;20500;-83
2023/07/13 05:49:44;;;;;;;21.87;20.40;;;;;;;;;;5136189;27;20978;-84
2023/07/13 05:52:11;;;;;;;21.47;20.00;;;;;;;;;;5135526;27;20498;-84
2023/07/13 05:54:38;;;;;;;21.60;20.00;;;;;;;;;;5136022;27;20470;-83
2023/07/13 05:57:07;;;;;;;20.70;19.50;;;;;;;;;;5135461;27;20455;-83
2023/07/13 05:59:34;;;;;;;20.97;19.47;;;;;;;;;;5135464;27;20451;-83
2023/07/13 06:02:01;;;;;;;289.33;246.53;;;;;;;;;;5135901;27;20561;-83
2023/07/13 06:04:28;;;;;;;440.97;310.77;;;;;;;;;;5135514;27;20448;-82
2023/07/13 06:06:55;;;;;;;447.77;278.13;;;;;;;;;;5135680;27;20431;-84
2023/07/13 06:09:22;;;;;;;443.87;271.37;;;;;;;;;;5136097;27;20486;-84
2023/07/13 06:11:49;;;;;;;447.15;258.23;;;;;;;;;;5136196;27;20495;-83
2023/07/13 06:14:17;;;;;;;440.33;261.02;;;;;;;;;;5135123;27;20254;-83
2023/07/13 06:16:45;;;;;;;504.95;406.05;;;;;;;;;;5134832;27;20213;-81
2023/07/13 06:19:12;;;;;;;499.90;255.32;;;;;;;;;;5134800;27;20205;-83
2023/07/13 06:21:39;;;;;;;451.23;230.38;;;;;;;;;;5135322;27;20747;-82
2023/07/13 06:24:06;;;;;;;551.08;495.77;;;;;;;;;;5133741;27;20209;-81
2023/07/13 06:26:33;;;;;;;23.67;21.73;;;;;;;;;;5134240;27;20262;-82
2023/07/13 06:29:00;;;;;;;23.53;21.27;;;;;;;;;;5134876;27;20486;-81
2023/07/13 06:31:28;;;;;;;22.17;20.50;;;;;;;;;;5134592;27;20455;-81
2023/07/13 06:33:55;;;;;;;22.07;20.53;;;;;;;;;;5133898;27;20450;-81
2023/07/13 06:36:22;;;;;;;21.83;20.50;;;;;;;;;;5133639;28;20443;-80
2023/07/13 06:38:50;;;;;;;21.53;20.03;;;;;;;;;;5134851;27;20421;-80
2023/07/13 06:41:17;;;;;;;22.40;20.67;;;;;;;;;;5133554;28;20441;-80
2023/07/13 06:43:45;;;;;;;21.90;20.20;;;;;;;;;;5133847;28;20513;-81
2023/07/13 06:46:12;;;;;;;22.07;20.30;;;;;;;;;;5133100;27;20472;-80
2023/07/13 06:48:40;;;;;;;21.93;20.20;;;;;;;;;;5134150;28;20450;-81
2023/07/13 06:51:07;;;;;;;21.70;19.80;;;;;;;;;;5133545;28;20506;-79
2023/07/13 06:53:34;;;;;;;21.40;19.80;;;;;;;;;;5134264;28;20451;-80
2023/07/13 06:56:01;;;;;;;21.57;19.90;;;;;;;;;;5133177;27;20442;-79
2023/07/13 06:58:28;;;;;;;20.47;19.27;;;;;;;;;;5133877;28;20507;-80
2023/07/13 07:00:55;;;;;;;22.33;20.73;;;;;;;;;;5133953;28;21032;-81
2023/07/13 07:03:22;;;;;;;21.87;20.37;;;;;;;;;;5134686;27;20500;-81
2023/07/13 07:05:50;;;;;;;21.50;20.03;;;;;;;;;;5135795;28;20458;-80
2023/07/13 07:08:17;;;;;;;23.10;21.20;;;;;;;;;;5134928;27;20760;-82
2023/07/13 07:10:45;;;;;;;22.70;20.33;;;;;;;;;;5134612;28;20539;-82
2023/07/13 07:13:12;;;;;;;23.73;21.70;;;;;;;;;;5134630;28;20455;-80
2023/07/13 07:15:39;;;;;;;23.50;21.80;;;;;;;;;;5133543;28;20435;-83
2023/07/13 07:18:06;;;;;;;23.10;21.37;;;;;;;;;;5134878;28;20451;-80
2023/07/13 07:20:33;;;;;;;23.43;21.73;;;;;;;;;;5133486;27;20467;-80
2023/07/13 07:23:02;;;;;;;23.53;21.30;;;;;;;;;;5134162;28;20410;-80
2023/07/13 07:25:31;;;;;;;24.40;22.30;;;;;;;;;;5133509;28;20439;-80
2023/07/13 07:27:58;;;;;;;22.77;21.13;;;;;;;;;;5134808;28;20421;-80
2023/07/13 07:30:26;;;;;;;22.37;20.87;;;;;;;;;;5133687;27;20481;-84
2023/07/13 07:32:53;;;;;;;22.70;21.03;;;;;;;;;;5119395;28;20415;-80
2023/07/13 07:35:20;;;;;;;22.73;21.30;;;;;;;;;;5113577;28;20423;-80
2023/07/13 07:37:46;;;;;;;23.40;21.70;;;;;;;;;;5116660;28;20432;-82
2023/07/13 07:40:15;;;;;;;22.60;20.90;;;;;;;;;;5117502;28;20972;-80
2023/07/13 07:42:42;;;;;;;22.40;21.00;;;;;;;;;;5117523;27;20512;-80
2023/07/13 07:45:11;;;;;;;23.80;21.80;;;;;;;;;;5117323;28;20804;-80
2023/07/13 07:47:38;;;;;;;24.13;22.43;;;;;;;;;;5116560;28;21296;-85
2023/07/13 07:50:05;;;;;;;22.90;21.30;;;;;;;;;;5117534;28;20527;-82
2023/07/13 07:52:32;;;;;;;22.50;20.90;;;;;;;;;;5118207;28;20426;-82
2023/07/13 07:54:59;;;;;;;23.67;21.97;;;;;;;;;;5118015;28;20451;-80
2023/07/13 07:57:27;;;;;;;22.50;20.87;;;;;;;;;;5116975;27;20430;-81
2023/07/13 07:59:54;;;;;;;22.93;21.33;;;;;;;;;;5117358;28;20431;-80
2023/07/13 08:02:21;;;;;;;23.87;22.37;;;;;;;;;;5116621;28;20448;-79
2023/07/13 08:04:48;;;;;;;24.47;22.67;;;;;;;;;;5118640;28;20422;-81
2023/07/13 08:07:15;;;;;;;24.13;22.40;;;;;;;;;;5117886;27;20472;-81
2023/07/13 08:09:42;;;;;;;24.07;22.37;;;;;;;;;;5118058;28;20560;-79
2023/07/13 08:12:09;;;;;;;24.70;22.90;;;;;;;;;;5118492;28;20472;-81
2023/07/13 08:14:38;;;;;;;24.80;23.20;;;;;;;;;;5117301;28;20476;-80
2023/07/13 08:17:05;;;;;;;23.13;21.63;;;;;;;;;;5124300;27;20903;-83
2023/07/13 08:19:32;;;;;;;23.67;22.03;;;;;;;;;;5136921;27;20457;-80
2023/07/13 08:21:59;;;;;;;23.60;22.10;;;;;;;;;;5138045;27;20454;-81
2023/07/13 08:24:26;;;;;;;24.40;22.63;;;;;;;;;;5138046;27;20480;-81
2023/07/13 08:26:53;;;;;;;24.13;22.27;;;;;;;;;;5136609;27;20779;-83
2023/07/13 08:29:20;;;;;;;24.30;22.50;;;;;;;;;;5136741;27;20518;-82
2023/07/13 08:31:48;;;;;;;24.40;22.67;;;;;;;;;;5136882;27;20445;-79
2023/07/13 08:34:15;;;;;;;24.87;23.13;;;;;;;;;;5138630;27;20447;-81
2023/07/13 08:36:42;;;;;;;24.50;23.00;;;;;;;;;;5137851;27;20441;-82
2023/07/13 08:39:10;;;;;;;23.53;21.93;;;;;;;;;;5141954;27;20451;-80
2023/07/13 08:41:37;;;;;;;23.27;21.47;;;;;;;;;;5150265;27;20448;-79
2023/07/13 08:44:09;;;;;;;24.50;22.43;;;;;;;;;;5150567;27;20478;-79
2023/07/13 08:46:37;;;;;;;24.60;22.90;;;;;;;;;;5144598;27;20445;-80
2023/07/13 08:49:09;;;;;;;24.80;23.10;;;;;;;;;;5138709;27;20402;-80
2023/07/13 08:51:40;;;;;;;24.50;22.80;;;;;;;;;;5138518;27;20437;-81
2023/07/13 08:54:12;;;;;;;25.13;23.33;;;;;;;;;;5138786;27;20402;-81
2023/07/13 08:56:39;;;;;;;24.30;22.70;;;;;;;;;;5138296;27;20827;-81
2023/07/13 08:59:08;;;;;;;23.70;22.10;;;;;;;;;;5138256;27;20467;-82
2023/07/13 09:01:53;;;;;;;24.33;22.43;;;;;;;;;;5137138;27;20447;-80
2023/07/13 09:04:24;;;;;;;24.13;22.47;;;;;;;;;;5138187;27;20421;-84
2023/07/13 09:06:59;;;;;;;25.97;23.80;;;;;;;;;;5137743;27;20414;-83
2023/07/13 09:09:32;;;;;;;25.60;23.60;;;;;;;;;;5137397;27;20471;-81
2023/07/13 09:12:03;;;;;;;24.77;22.97;;;;;;;;;;5136737;27;20462;-83
2023/07/13 09:14:36;;;;;;;25.00;23.40;;;;;;;;;;5135729;27;20455;-83
2023/07/13 09:17:05;;;;;;;25.40;23.60;;;;;;;;;;5137450;27;20425;-85
2023/07/13 09:19:35;;;;;;;24.10;22.60;;;;;;;;;;5137955;27;20463;-85
2023/07/13 09:22:03;;;;;;;24.20;22.60;;;;;;;;;;5136331;27;20453;-76
2023/07/13 09:24:36;;;;;;;25.40;23.40;;;;;;;;;;5133902;27;20488;-76
2023/07/13 09:27:05;;;;;;;31.93;27.10;;;;;;;;;;5132377;27;21079;-78
2023/07/13 09:29:35;;;;;;;24.50;22.80;;;;;;;;;;5132552;27;20467;-77
2023/07/13 09:32:03;;;;;;;23.73;22.17;;;;;;;;;;5132496;27;20418;-78
2023/07/13 09:34:31;;;;;;;25.10;23.30;;;;;;;;;;5132253;27;20422;-77
2023/07/13 09:36:59;;;;;;;24.00;22.40;;;;;;;;;;5131445;27;20421;-76
2023/07/13 09:39:29;;;;;;;24.30;22.80;;;;;;;;;;5130885;27;20955;-77
2023/07/13 09:41:59;;;;;;;24.97;23.23;;;;;;;;;;5132266;27;21236;-77
2023/07/13 09:44:31;;;;;;;25.77;23.33;;;;;;;;;;5132229;27;20462;-76
2023/07/13 09:46:58;;;;;;;25.50;23.77;;;;;;;;;;5131765;27;20424;-76
2023/07/13 09:49:26;;;;;;;25.93;24.23;;;;;;;;;;5131152;27;20433;-76
2023/07/13 09:51:59;;;;;;;27.07;25.07;;;;;;;;;;5132146;27;20459;-76
2023/07/13 09:54:28;;;;;;;25.17;23.47;;;;;;;;;;5132277;27;20451;-77
2023/07/13 09:56:56;;;;;;;25.77;24.17;;;;;;;;;;5131574;27;20455;-77
2023/07/13 09:59:24;;;;;;;26.37;24.67;;;;;;;;;;5131294;27;21009;-76
2023/07/13 10:01:52;;;;;;;25.60;23.90;;;;;;;;;;5132600;27;20422;-77
2023/07/13 10:04:19;;;;;;;26.97;24.97;;;;;;;;;;5132088;27;20503;-77
2023/07/13 10:06:47;;;;;;;26.27;24.57;;;;;;;;;;5131224;27;20451;-77
2023/07/13 10:09:16;;;;;;;26.13;24.27;;;;;;;;;;5131331;27;20463;-77
2023/07/13 10:11:45;;;;;;;27.60;25.57;;;;;;;;;;5132881;27;20457;-78
2023/07/13 10:14:14;;;;;;;26.37;24.77;;;;;;;;;;5133137;27;20426;-77
2023/07/13 10:16:43;;;;;;;26.97;24.80;;;;;;;;;;5133087;27;20478;-81
2023/07/13 10:19:14;;;;;;;26.10;24.40;;;;;;;;;;5134639;27;20464;-80
2023/07/13 10:21:44;;;;;;;27.03;25.27;;;;;;;;;;5134486;27;20980;-81
2023/07/13 10:24:15;;;;;;;27.40;25.70;;;;;;;;;;5134273;27;20932;-82
2023/07/13 10:26:47;;;;;;;26.63;24.83;;;;;;;;;;5132589;27;20459;-79
2023/07/13 10:29:18;;;;;;;24.77;23.17;;;;;;;;;;5132237;27;20743;-77
2023/07/13 10:31:46;;;;;;;26.70;24.80;;;;;;;;;;5132085;27;20463;-77
2023/07/13 10:34:14;;;;;;;26.70;24.90;;;;;;;;;;5132145;28;20421;-76
2023/07/13 10:36:43;;;;;;;26.03;24.37;;;;;;;;;;5131697;27;20506;-77
2023/07/13 10:39:14;;;;;;;27.07;25.13;;;;;;;;;;5132782;27;20437;-77
2023/07/13 10:41:43;;;;;;;25.67;24.07;;;;;;;;;;5132031;28;20422;-77
2023/07/13 10:44:13;;;;;;;26.83;24.93;;;;;;;;;;5132497;28;20426;-77
2023/07/13 10:46:43;;;;;;;27.27;25.57;;;;;;;;;;5131627;27;20406;-78
2023/07/13 10:49:12;;;;;;;27.60;25.70;;;;;;;;;;5131728;28;20451;-76
2023/07/13 10:51:40;;;;;;;28.47;26.37;;;;;;;;;;5130373;28;20498;-77
2023/07/13 10:54:18;;;;;;;27.50;25.50;;;;;;;;;;5131742;28;20508;-77
2023/07/13 10:56:46;;;;;;;27.80;25.60;;;;;;;;;;5131152;28;20498;-77
2023/07/13 10:59:15;;;;;;;27.30;25.50;;;;;;;;;;5131301;28;20421;-78
2023/07/13 11:01:49;;;;;;;27.40;25.70;;;;;;;;;;5130915;27;20473;-78
2023/07/13 11:04:21;;;;;;;27.50;25.70;;;;;;;;;;5131802;28;20405;-77
2023/07/13 11:06:50;;;;;;;26.30;24.60;;;;;;;;;;5134083;28;20898;-80
2023/07/13 11:09:32;;;;;;;26.37;24.67;;;;;;;;;;5135889;27;20804;-81
2023/07/13 11:12:00;;;;;;;26.47;24.63;;;;;;;;;;5138804;27;20468;-80
2023/07/13 11:14:30;;;;;;;26.30;24.50;;;;;;;;;;5139827;27;20795;-78
2023/07/13 11:16:59;;;;;;;25.20;23.70;;;;;;;;;;5138201;27;20438;-80
2023/07/13 11:19:39;;;;;;;25.60;23.80;;;;;;;;;;5138654;27;20844;-80
2023/07/13 11:22:14;;;;;;;25.50;23.60;;;;;;;;;;5139076;27;20884;-78
2023/07/13 11:24:51;;;;;;;25.80;23.87;;;;;;;;;;5137413;27;20413;-78
2023/07/13 11:27:24;;;;;;;25.07;23.33;;;;;;;;;;5137138;27;20438;-79
2023/07/13 11:29:51;;;;;;;25.17;23.20;;;;;;;;;;5137504;27;20437;-78
2023/07/13 11:32:26;;;;;;;25.10;23.30;;;;;;;;;;5136620;27;20691;-78
2023/07/13 11:34:54;;;;;;;27.63;25.60;;;;;;;;;;5137401;27;20439;-80
2023/07/13 11:37:23;;;;;;;26.43;24.60;;;;;;;;;;5137294;27;20417;-80
2023/07/13 11:39:52;;;;;;;26.33;24.53;;;;;;;;;;5138574;27;20453;-81
2023/07/13 11:42:20;;;;;;;26.47;24.50;;;;;;;;;;5137347;27;20434;-81
2023/07/13 11:44:48;;;;;;;25.70;24.07;;;;;;;;;;5136935;27;20442;-78
2023/07/13 11:47:20;;;;;;;25.27;23.40;;;;;;;;;;5138644;27;20451;-86
2023/07/13 11:49:50;;;;;;;25.73;23.93;;;;;;;;;;5137874;27;20434;-84
2023/07/13 11:52:19;;;;;;;25.83;24.13;;;;;;;;;;5138397;27;20456;-80
2023/07/13 11:54:50;;;;;;;24.90;23.23;;;;;;;;;;5138490;27;20938;-81
2023/07/13 11:57:21;;;;;;;25.93;24.13;;;;;;;;;;5138776;27;20406;-79
2023/07/13 11:59:48;;;;;;;25.57;23.87;;;;;;;;;;5137576;27;20441;-86
2023/07/13 12:02:17;;;;;;;26.10;24.30;;;;;;;;;;5139763;27;20500;-80
2023/07/13 12:04:45;;;;;;;25.83;24.23;;;;;;;;;;5136831;27;20425;-78
2023/07/13 12:07:17;;;;;;;25.23;23.73;;;;;;;;;;5136205;27;20500;-78
2023/07/13 12:09:44;;;;;;;26.30;24.30;;;;;;;;;;5135806;27;20486;-77
2023/07/13 12:12:12;;;;;;;27.27;25.37;;;;;;;;;;5136902;27;20470;-77
2023/07/13 12:14:39;;;;;;;26.80;25.10;;;;;;;;;;5137681;27;20923;-78
2023/07/13 12:17:10;;;;;;;26.67;24.70;;;;;;;;;;5135958;27;20454;-78
2023/07/13 12:19:37;;;;;;;27.17;25.27;;;;;;;;;;5137405;27;20446;-79
2023/07/13 12:22:04;;;;;;;26.83;24.93;;;;;;;;;;5136006;27;20463;-84
2023/07/13 12:24:33;;;;;;;26.67;24.73;;;;;;;;;;5135995;27;20410;-78
2023/07/13 12:27:01;;;;;;;26.87;25.03;;;;;;;;;;5135922;27;20440;-78
2023/07/13 12:29:28;;;;;;;26.53;24.60;;;;;;;;;;5136469;27;20491;-78
2023/07/13 12:31:55;;;;;;;26.77;24.90;;;;;;;;;;5136401;27;20475;-79
2023/07/13 12:34:24;;;;;;;25.53;23.83;;;;;;;;;;5136153;27;20449;-78
2023/07/13 12:36:52;;;;;;;26.37;24.67;;;;;;;;;;5136977;27;20470;-77
2023/07/13 12:39:21;;;;;;;27.00;25.20;;;;;;;;;;5156558;27;20425;-79
2023/07/13 12:41:50;;;;;;;28.87;27.00;;;;;;;;;;5156467;27;20880;-79
2023/07/13 12:44:18;;;;;;;31.67;29.23;;;;;;;;;;5157084;27;20754;-79
2023/07/13 12:46:56;;;;;;;29.30;27.30;;;;;;;;;;5155208;27;20536;-79
2023/07/13 12:49:29;;;;;;;26.80;24.90;;;;;;;;;;5156788;27;20531;-79
2023/07/13 12:52:00;;;;;;;28.30;26.23;;;;;;;;;;5142148;27;20479;-81
2023/07/13 12:54:27;;;;;;;27.50;25.70;;;;;;;;;;5136784;27;20966;-78
2023/07/13 12:56:58;;;;;;;26.90;25.07;;;;;;;;;;5134530;27;20940;-78
2023/07/13 12:59:27;;;;;;;27.87;25.97;;;;;;;;;;5134864;27;20573;-80
2023/07/13 13:01:55;;;;;;;27.13;25.20;;;;;;;;;;5137309;27;20910;-78
2023/07/13 13:04:22;;;;;;;29.93;27.53;;;;;;;;;;5135808;27;20482;-80
2023/07/13 13:06:50;;;;;;;28.10;25.80;;;;;;;;;;5137150;27;20451;-81
2023/07/13 13:09:19;;;;;;;27.37;25.17;;;;;;;;;;5136766;27;20434;-80
2023/07/13 13:11:47;;;;;;;26.37;24.57;;;;;;;;;;5136736;27;20490;-79
2023/07/13 13:14:15;;;;;;;23.53;22.03;;;;;;;;;;5137668;27;20968;-80
2023/07/13 13:16:46;;;;;;;25.60;23.90;;;;;;;;;;5138768;27;20422;-80
2023/07/13 13:19:15;;;;;;;25.17;23.50;;;;;;;;;;5137819;27;20395;-80
2023/07/13 13:21:44;;;;;;;24.33;22.83;;;;;;;;;;5137434;27;20531;-79
2023/07/13 13:24:13;;;;;;;25.33;23.53;;;;;;;;;;5137739;27;20446;-80
2023/07/13 13:26:40;;;;;;;25.17;23.67;;;;;;;;;;5136623;27;20440;-78
2023/07/13 13:29:13;;;;;;;23.90;22.30;;;;;;;;;;5137642;27;20443;-80
2023/07/13 13:31:42;;;;;;;23.97;22.47;;;;;;;;;;5137689;27;20529;-79
2023/07/13 13:34:10;;;;;;;25.20;23.60;;;;;;;;;;5136369;27;20486;-79
2023/07/13 13:36:38;;;;;;;25.10;23.23;;;;;;;;;;5136969;27;20409;-80
2023/07/13 13:39:07;;;;;;;25.43;23.73;;;;;;;;;;5137864;27;20453;-79
2023/07/13 13:41:34;;;;;;;24.43;22.77;;;;;;;;;;5141904;27;20394;-80
2023/07/13 13:44:05;;;;;;;26.87;24.97;;;;;;;;;;5156330;27;20433;-79
2023/07/13 13:46:32;;;;;;;24.43;22.93;;;;;;;;;;5155975;27;20432;-79
2023/07/13 13:49:01;;;;;;;24.70;23.20;;;;;;;;;;5156929;27;20480;-81
2023/07/13 13:51:29;;;;;;;25.27;23.30;;;;;;;;;;5154971;27;20450;-79
2023/07/13 13:53:56;;;;;;;24.80;23.10;;;;;;;;;;5136615;27;20424;-79
2023/07/13 13:56:23;;;;;;;25.03;23.33;;;;;;;;;;5134262;27;20511;-79
2023/07/13 13:58:50;;;;;;;25.27;23.43;;;;;;;;;;5136378;27;20480;-79
2023/07/13 14:01:18;;;;;;;25.30;23.70;;;;;;;;;;5136610;27;20470;-79
2023/07/13 14:03:45;;;;;;;25.17;23.40;;;;;;;;;;5136334;27;20446;-79
2023/07/13 14:06:14;;;;;;;24.67;23.10;;;;;;;;;;5135792;27;20508;-79
2023/07/13 14:08:41;;;;;;;25.77;23.90;;;;;;;;;;5137304;27;20421;-79
2023/07/13 14:11:10;;;;;;;24.43;22.97;;;;;;;;;;5136550;27;20487;-78
2023/07/13 14:13:40;;;;;;;24.50;22.87;;;;;;;;;;5135658;27;20434;-79
2023/07/13 14:16:11;;;;;;;24.27;22.47;;;;;;;;;;5136173;27;20422;-79
2023/07/13 14:18:38;;;;;;;24.53;22.90;;;;;;;;;;5138572;27;20417;-80
2023/07/13 14:21:09;;;;;;;24.63;22.63;;;;;;;;;;5136152;27;20450;-79
2023/07/13 14:23:38;;;;;;;24.17;22.67;;;;;;;;;;5134194;27;20449;-79